Time;durP1;ratioP1;P1;durP2;ratioP2;P2;SDS_P1;SDS_P2;PMS_P1;PMS_P2;Temp;Humidity;BMP_temperature;BMP_pressure;BME280_temperature;BME280_humidity;BME280_pressure;Samples;Min_cycle;Max_cycle;Signal;HPM_P1;HPM_P2
2020/12/01 00:00:37;;;;;;;8.43;3.80;;;9.30;99.90;;;;;;5062820;28;20190;-85
2020/12/01 00:03:02;;;;;;;9.50;2.72;;;9.20;99.90;;;;;;5062507;28;20220;-85
2020/12/01 00:05:28;;;;;;;6.82;2.55;;;9.20;99.90;;;;;;5085577;28;20213;-85
2020/12/01 00:07:54;;;;;;;4.78;1.85;;;9.10;99.90;;;;;;5065986;28;20170;-85
2020/12/01 00:10:21;;;;;;;4.18;1.95;;;8.90;99.90;;;;;;5060262;28;20175;-84
2020/12/01 00:12:48;;;;;;;9.05;2.47;;;8.80;99.90;;;;;;5076427;28;20356;-84
2020/12/01 00:15:19;;;;;;;4.13;1.60;;;8.70;99.90;;;;;;5058960;28;20246;-85
2020/12/01 00:17:45;;;;;;;2.85;1.88;;;8.70;99.90;;;;;;5058979;28;20163;-86
2020/12/01 00:20:12;;;;;;;6.20;2.00;;;8.60;99.90;;;;;;5076976;28;20261;-84
2020/12/01 00:22:37;;;;;;;4.50;1.65;;;8.50;99.90;;;;;;5078249;28;20170;-85
2020/12/01 00:25:05;;;;;;;5.30;1.65;;;8.50;99.90;;;;;;5026576;28;20523;-85
2020/12/01 00:27:30;;;;;;;7.27;1.93;;;8.60;99.90;;;;;;5059064;28;20171;-85
2020/12/01 00:29:56;;;;;;;6.53;1.60;;;8.70;99.90;;;;;;5037027;28;20235;-85
2020/12/01 00:32:22;;;;;;;7.23;1.70;;;8.70;99.90;;;;;;5061841;28;20213;-85
2020/12/01 00:34:47;;;;;;;4.57;1.70;;;8.70;99.90;;;;;;5099749;28;20170;-85
2020/12/01 00:37:13;;;;;;;8.80;2.03;;;8.60;99.90;;;;;;5080311;28;20183;-88
2020/12/01 00:39:39;;;;;;;4.05;1.45;;;8.40;99.90;;;;;;5077240;28;20219;-85
2020/12/01 00:42:05;;;;;;;6.13;2.28;;;8.30;99.90;;;;;;5062714;28;20182;-85
2020/12/01 00:44:30;;;;;;;8.85;2.13;;;8.50;99.90;;;;;;5041100;28;20171;-85
2020/12/01 00:46:56;;;;;;;5.10;1.60;;;8.60;99.90;;;;;;5042098;28;20178;-85
2020/12/01 00:49:21;;;;;;;10.27;1.95;;;8.70;99.90;;;;;;5026700;28;20540;-85
2020/12/01 00:51:48;;;;;;;12.33;2.27;;;8.70;99.90;;;;;;5059985;28;20580;-85
2020/12/01 00:54:15;;;;;;;21.30;2.40;;;8.60;99.90;;;;;;5066046;28;20171;-84
2020/12/01 00:56:41;;;;;;;17.07;2.83;;;8.60;99.90;;;;;;5048133;28;20175;-84
2020/12/01 00:59:06;;;;;;;10.93;2.20;;;8.60;99.90;;;;;;5064948;28;20186;-84
2020/12/01 01:01:32;;;;;;;17.43;2.10;;;8.80;99.90;;;;;;5042766;28;20644;-85
2020/12/01 01:03:57;;;;;;;17.52;2.80;;;8.80;99.90;;;;;;5062891;28;20220;-85
2020/12/01 01:06:23;;;;;;;12.23;2.50;;;8.70;99.90;;;;;;5081140;28;20193;-85
2020/12/01 01:08:49;;;;;;;16.95;2.58;;;8.80;99.90;;;;;;5052873;28;20179;-85
2020/12/01 01:11:14;;;;;;;16.10;2.80;;;8.70;99.90;;;;;;5042161;28;20204;-86
2020/12/01 01:13:41;;;;;;;16.33;2.53;;;8.70;99.90;;;;;;5039851;28;20156;-85
2020/12/01 01:16:07;;;;;;;12.97;2.33;;;8.80;99.90;;;;;;5054980;28;20176;-84
2020/12/01 01:18:34;;;;;;;22.40;1.90;;;8.70;99.90;;;;;;5066073;28;20175;-84
2020/12/01 01:21:00;;;;;;;11.98;2.25;;;8.60;99.90;;;;;;5057942;28;20183;-85
2020/12/01 01:23:25;;;;;;;11.57;2.23;;;8.60;99.90;;;;;;5057627;28;20372;-86
2020/12/01 01:25:51;;;;;;;17.90;2.43;;;8.60;99.90;;;;;;5057813;28;20632;-85
2020/12/01 01:28:17;;;;;;;18.73;2.55;;;8.60;99.90;;;;;;5041774;28;20530;-85
2020/12/01 01:30:43;;;;;;;15.60;2.05;;;8.50;99.90;;;;;;5077687;28;20661;-85
2020/12/01 01:33:10;;;;;;;14.40;2.08;;;8.60;99.90;;;;;;5077278;28;20237;-85
2020/12/01 01:35:37;;;;;;;13.63;1.60;;;8.60;99.90;;;;;;5077617;28;20611;-85
2020/12/01 01:38:04;;;;;;;18.00;2.10;;;8.70;99.90;;;;;;5077704;28;20173;-86
2020/12/01 01:40:31;;;;;;;9.48;1.63;;;8.70;99.90;;;;;;5051483;28;20270;-86
2020/12/01 01:42:58;;;;;;;9.82;2.65;;;8.80;99.90;;;;;;5057469;28;20175;-86
2020/12/01 01:45:46;;;;;;;21.98;2.05;;;8.80;99.90;;;;;;5058991;28;20531;-85
2020/12/01 01:48:32;;;;;;;7.85;1.45;;;8.80;99.90;;;;;;5074908;28;20167;-86
2020/12/01 01:51:12;;;;;;;11.05;1.60;;;8.80;99.90;;;;;;5074968;28;20620;-86
2020/12/01 01:53:45;;;;;;;13.20;1.87;;;8.90;99.90;;;;;;5067157;28;20531;-85
2020/12/01 01:56:12;;;;;;;6.75;1.30;;;8.90;99.90;;;;;;5075606;28;20577;-86
2020/12/01 01:58:41;;;;;;;15.60;2.40;;;9.00;99.90;;;;;;5046406;28;20971;-86
2020/12/01 02:01:10;;;;;;;7.77;1.80;;;9.10;99.90;;;;;;5054685;28;20589;-86
2020/12/01 02:03:40;;;;;;;12.55;1.63;;;9.20;99.90;;;;;;5037029;28;20163;-86
2020/12/01 02:06:17;;;;;;;8.30;1.50;;;9.20;99.90;;;;;;5036631;28;20171;-86
2020/12/01 02:08:50;;;;;;;5.18;1.20;;;9.20;99.90;;;;;;5058389;28;20154;-86
2020/12/01 02:11:16;;;;;;;13.63;1.52;;;9.20;99.90;;;;;;5056439;28;20195;-87
2020/12/01 02:13:50;;;;;;;8.73;1.83;;;9.20;99.90;;;;;;5074928;28;20159;-86
2020/12/01 02:16:16;;;;;;;6.30;1.23;;;9.20;99.90;;;;;;5079764;28;20169;-86
2020/12/01 02:18:41;;;;;;;6.78;1.30;;;9.20;99.90;;;;;;5057305;28;20549;-86
2020/12/01 02:21:35;;;;;;;8.63;1.50;;;9.10;99.90;;;;;;5039953;28;20174;-85
2020/12/01 02:24:04;;;;;;;10.27;1.83;;;9.10;99.90;;;;;;5070042;28;20310;-85
2020/12/01 02:26:30;;;;;;;15.95;1.80;;;9.00;99.90;;;;;;5094630;28;20200;-86
2020/12/01 02:28:57;;;;;;;13.82;2.17;;;9.00;99.90;;;;;;5043136;28;20171;-86
2020/12/01 02:31:22;;;;;;;14.95;2.45;;;9.00;99.90;;;;;;5075641;28;20212;-85
2020/12/01 02:33:49;;;;;;;20.08;2.90;;;9.00;99.90;;;;;;5051061;28;20174;-86
2020/12/01 02:36:15;;;;;;;14.13;2.30;;;9.00;99.90;;;;;;5059874;28;20614;-85
2020/12/01 02:38:41;;;;;;;20.92;2.60;;;9.00;99.90;;;;;;5076197;28;20580;-86
2020/12/01 02:41:07;;;;;;;19.47;3.03;;;9.00;99.90;;;;;;5076995;28;20582;-85
2020/12/01 02:43:33;;;;;;;33.53;3.63;;;8.90;99.90;;;;;;5076220;28;20180;-85
2020/12/01 02:45:59;;;;;;;30.92;2.88;;;8.90;99.90;;;;;;5043105;28;20178;-85
2020/12/01 02:48:24;;;;;;;32.83;3.37;;;8.70;99.90;;;;;;5076258;28;20198;-85
2020/12/01 02:50:50;;;;;;;16.25;3.13;;;8.70;99.90;;;;;;5075987;28;20176;-85
2020/12/01 02:53:16;;;;;;;25.37;3.93;;;8.80;99.90;;;;;;5069504;28;20662;-86
2020/12/01 02:55:41;;;;;;;37.90;3.90;;;8.80;99.90;;;;;;5039645;28;20171;-84
2020/12/01 02:58:07;;;;;;;34.13;4.20;;;8.60;99.90;;;;;;5048190;28;20181;-86
2020/12/01 03:00:33;;;;;;;27.33;3.73;;;8.60;99.90;;;;;;5062847;28;20172;-85
2020/12/01 03:02:59;;;;;;;25.27;3.33;;;8.60;99.90;;;;;;5087428;28;20181;-84
2020/12/01 03:05:25;;;;;;;32.97;3.67;;;8.40;99.90;;;;;;5039524;28;20265;-85
2020/12/01 03:07:50;;;;;;;21.20;3.43;;;8.40;99.90;;;;;;5073288;28;20166;-85
2020/12/01 03:10:16;;;;;;;23.97;3.63;;;8.50;99.90;;;;;;5028857;28;20597;-85
2020/12/01 03:12:42;;;;;;;34.00;4.18;;;8.50;99.90;;;;;;5094236;28;20263;-85
2020/12/01 03:15:11;;;;;;;32.50;3.55;;;8.70;99.90;;;;;;5105077;28;20163;-83
2020/12/01 03:17:37;;;;;;;28.00;3.28;;;8.80;99.90;;;;;;5091305;28;20167;-83
2020/12/01 03:20:03;;;;;;;23.52;2.88;;;9.00;99.90;;;;;;5046909;28;20177;-84
2020/12/01 03:22:29;;;;;;;37.65;3.40;;;9.10;99.90;;;;;;5042855;28;20185;-84
2020/12/01 03:24:54;;;;;;;34.85;3.92;;;9.00;99.90;;;;;;5093576;28;20179;-84
2020/12/01 03:27:20;;;;;;;19.52;3.60;;;9.00;99.90;;;;;;5059222;28;20174;-84
2020/12/01 03:29:45;;;;;;;26.70;2.47;;;9.00;99.90;;;;;;5042412;28;20178;-84
2020/12/01 03:32:11;;;;;;;29.30;3.20;;;9.10;99.90;;;;;;5059038;28;20206;-83
2020/12/01 03:34:36;;;;;;;24.65;3.55;;;8.90;99.90;;;;;;5042266;28;20179;-84
2020/12/01 03:37:02;;;;;;;29.67;2.70;;;8.90;99.90;;;;;;5055889;28;20167;-83
2020/12/01 03:39:28;;;;;;;23.88;3.53;;;8.80;99.90;;;;;;5055697;28;20163;-84
2020/12/01 03:41:54;;;;;;;20.98;3.15;;;8.80;99.90;;;;;;5039377;28;20580;-85
2020/12/01 03:44:19;;;;;;;26.13;4.70;;;8.70;99.90;;;;;;5073647;28;20202;-85
2020/12/01 03:46:45;;;;;;;25.55;3.42;;;8.90;99.90;;;;;;5055669;28;20182;-84
2020/12/01 03:49:10;;;;;;;22.95;3.20;;;8.90;99.90;;;;;;5055292;28;20171;-84
2020/12/01 03:51:36;;;;;;;20.37;2.93;;;8.80;99.90;;;;;;5055835;28;20198;-84
2020/12/01 03:54:03;;;;;;;19.70;2.40;;;8.80;99.90;;;;;;5038563;28;20588;-84
2020/12/01 03:56:28;;;;;;;22.50;2.60;;;8.80;99.90;;;;;;5055336;28;20508;-84
2020/12/01 03:58:54;;;;;;;13.50;3.00;;;8.70;99.90;;;;;;5060934;28;20185;-85
2020/12/01 04:01:20;;;;;;;18.77;2.97;;;8.70;99.90;;;;;;5058882;28;20174;-85
2020/12/01 04:03:45;;;;;;;18.87;2.60;;;8.70;99.90;;;;;;5029699;28;20172;-84
2020/12/01 04:06:11;;;;;;;18.03;2.47;;;8.80;99.90;;;;;;5019231;28;20168;-84
2020/12/01 04:08:37;;;;;;;16.13;2.67;;;8.70;99.90;;;;;;5035714;28;20207;-84
2020/12/01 04:11:04;;;;;;;31.45;2.55;;;8.80;99.90;;;;;;5058649;28;20186;-84
2020/12/01 04:13:31;;;;;;;20.00;2.40;;;8.70;99.90;;;;;;5093555;28;20208;-84
2020/12/01 04:15:57;;;;;;;19.23;2.40;;;8.70;99.90;;;;;;5058775;28;20209;-85
2020/12/01 04:18:23;;;;;;;21.30;2.53;;;8.70;99.90;;;;;;5075324;28;20170;-84
2020/12/01 04:20:48;;;;;;;16.37;2.20;;;8.70;99.90;;;;;;5062204;28;20174;-84
2020/12/01 04:23:14;;;;;;;11.03;2.00;;;8.80;99.90;;;;;;5078834;28;20174;-84
2020/12/01 04:25:40;;;;;;;12.23;2.25;;;8.90;99.90;;;;;;5078996;28;20178;-84
2020/12/01 04:28:05;;;;;;;4.10;1.35;;;8.90;99.90;;;;;;5062254;28;20174;-84
2020/12/01 04:30:31;;;;;;;9.10;1.67;;;8.90;99.90;;;;;;5062041;28;20527;-84
2020/12/01 04:32:57;;;;;;;6.17;1.60;;;8.80;99.90;;;;;;5096665;28;20550;-84
2020/12/01 04:35:27;;;;;;;12.33;2.13;;;8.80;99.90;;;;;;5061965;28;20181;-84
2020/12/01 04:37:57;;;;;;;9.13;1.77;;;8.80;99.90;;;;;;5078947;28;20640;-84
2020/12/01 04:40:26;;;;;;;5.78;1.30;;;8.90;99.90;;;;;;5076846;28;20162;-84
2020/12/01 04:42:58;;;;;;;10.90;2.43;;;8.90;99.90;;;;;;5078422;28;20235;-83
2020/12/01 04:45:25;;;;;;;11.40;1.30;;;8.70;99.90;;;;;;5078461;28;20219;-84
2020/12/01 04:47:57;;;;;;;9.33;1.40;;;8.60;99.90;;;;;;5096207;28;20197;-84
2020/12/01 04:50:35;;;;;;;13.93;1.40;;;8.70;99.90;;;;;;5078231;28;20294;-84
2020/12/01 04:53:28;;;;;;;9.40;1.27;;;8.80;99.90;;;;;;5078170;28;20209;-84
2020/12/01 04:56:17;;;;;;;14.67;2.10;;;8.90;99.90;;;;;;5078186;28;20177;-84
2020/12/01 04:58:55;;;;;;;13.37;1.97;;;8.80;99.90;;;;;;5058880;28;20174;-84
2020/12/01 05:01:26;;;;;;;5.05;1.50;;;8.70;99.90;;;;;;5057995;28;20162;-84
2020/12/01 05:04:10;;;;;;;9.38;1.75;;;8.60;99.90;;;;;;5063740;28;20176;-84
2020/12/01 05:07:14;;;;;;;15.27;1.42;;;8.70;99.90;;;;;;5078196;28;20166;-84
2020/12/01 05:09:45;;;;;;;6.22;1.40;;;8.70;99.90;;;;;;5095333;28;20174;-84
2020/12/01 05:12:26;;;;;;;12.43;1.77;;;8.70;99.90;;;;;;5095999;28;20293;-85
2020/12/01 05:15:01;;;;;;;10.70;1.50;;;8.70;99.90;;;;;;5064782;28;20171;-83
2020/12/01 05:17:41;;;;;;;6.13;1.10;;;8.70;99.90;;;;;;5058031;28;20688;-84
2020/12/01 05:20:08;;;;;;;15.10;2.75;;;8.70;99.90;;;;;;5080572;28;20174;-84
2020/12/01 05:22:33;;;;;;;8.53;1.53;;;8.60;99.90;;;;;;5086122;28;20185;-86
2020/12/01 05:24:59;;;;;;;12.97;2.20;;;8.60;99.90;;;;;;5053706;28;20535;-84
2020/12/01 05:27:35;;;;;;;8.27;1.67;;;8.60;99.90;;;;;;5044528;28;20173;-84
2020/12/01 05:30:14;;;;;;;14.23;1.70;;;8.80;99.90;;;;;;5095350;28;20174;-84
2020/12/01 05:32:50;;;;;;;14.20;2.33;;;8.80;99.90;;;;;;5077738;28;20197;-83
2020/12/01 05:35:18;;;;;;;18.13;1.90;;;8.80;99.90;;;;;;5079993;28;20166;-84
2020/12/01 05:37:59;;;;;;;18.15;2.50;;;8.70;99.90;;;;;;5067309;28;20265;-84
2020/12/01 05:40:27;;;;;;;14.60;2.50;;;8.80;99.90;;;;;;5084649;28;20166;-84
2020/12/01 05:42:53;;;;;;;21.95;1.75;;;8.90;99.90;;;;;;5078483;28;20323;-84
2020/12/01 05:45:29;;;;;;;8.43;1.93;;;8.90;99.90;;;;;;5043451;28;20627;-84
2020/12/01 05:48:02;;;;;;;11.93;1.57;;;8.80;99.90;;;;;;5095414;28;20150;-83
2020/12/01 05:50:31;;;;;;;16.50;1.42;;;8.70;99.90;;;;;;5076982;28;20162;-84
2020/12/01 05:53:05;;;;;;;4.25;1.17;;;8.80;99.90;;;;;;5057548;28;20240;-84
2020/12/01 05:55:31;;;;;;;8.90;1.48;;;8.90;99.90;;;;;;5073179;28;20255;-84
2020/12/01 05:58:06;;;;;;;12.30;1.95;;;8.90;99.90;;;;;;5060471;28;20169;-84
2020/12/01 06:00:37;;;;;;;9.43;1.80;;;8.90;99.90;;;;;;5068061;28;20223;-84
2020/12/01 06:03:24;;;;;;;12.52;1.30;;;8.90;99.90;;;;;;5074999;28;20174;-85
2020/12/01 06:05:53;;;;;;;14.75;1.63;;;9.00;99.90;;;;;;5056487;28;20171;-85
2020/12/01 06:08:33;;;;;;;17.58;2.95;;;9.00;99.90;;;;;;5056851;28;20636;-85
2020/12/01 06:11:33;;;;;;;13.48;1.90;;;9.00;99.90;;;;;;5064840;28;20193;-85
2020/12/01 06:14:20;;;;;;;14.20;2.08;;;9.00;99.90;;;;;;5076729;28;20211;-86
2020/12/01 06:16:55;;;;;;;17.77;2.67;;;8.80;99.90;;;;;;5094030;28;20239;-85
2020/12/01 06:19:42;;;;;;;19.92;2.92;;;8.90;99.90;;;;;;5086258;28;20158;-84
2020/12/01 06:22:16;;;;;;;18.73;2.57;;;8.80;99.90;;;;;;5077475;28;20220;-85
2020/12/01 06:25:14;;;;;;;23.57;2.63;;;8.90;99.90;;;;;;5056570;28;20177;-85
2020/12/01 06:28:21;;;;;;;22.23;2.93;;;9.00;99.90;;;;;;5068858;28;20539;-85
2020/12/01 06:31:28;;;;;;;23.92;2.75;;;9.20;99.90;;;;;;5008588;28;20179;-86
2020/12/01 06:34:02;;;;;;;36.08;4.10;;;9.30;99.90;;;;;;4993015;28;20195;-86
2020/12/01 06:37:08;;;;;;;22.23;2.80;;;9.20;99.90;;;;;;5054534;28;20187;-85
2020/12/01 06:39:59;;;;;;;29.90;3.42;;;9.20;99.90;;;;;;5051285;28;20703;-85
2020/12/01 06:42:53;;;;;;;31.50;3.72;;;9.20;99.90;;;;;;5053892;28;20190;-85
2020/12/01 06:45:45;;;;;;;25.93;3.37;;;9.30;99.90;;;;;;5036300;28;20206;-85
2020/12/01 06:48:19;;;;;;;16.23;2.63;;;9.30;99.90;;;;;;5036315;28;20627;-85
2020/12/01 06:50:58;;;;;;;29.53;3.30;;;9.20;99.90;;;;;;5070240;28;20590;-85
2020/12/01 06:53:26;;;;;;;18.67;2.90;;;9.10;99.90;;;;;;5076053;28;20665;-85
2020/12/01 06:55:58;;;;;;;27.73;2.80;;;9.10;99.90;;;;;;5075971;28;20174;-85
2020/12/01 06:58:26;;;;;;;24.63;3.70;;;9.10;99.90;;;;;;5073483;28;20544;-85
2020/12/01 07:01:08;;;;;;;23.87;4.13;;;9.00;99.90;;;;;;5055984;28;20253;-85
2020/12/01 07:03:34;;;;;;;32.60;4.40;;;9.00;99.90;;;;;;5073578;28;20681;-84
2020/12/01 07:06:45;;;;;;;20.93;3.97;;;9.00;99.90;;;;;;5055943;28;20170;-85
2020/12/01 07:09:14;;;;;;;39.80;4.70;;;9.10;99.90;;;;;;5082680;28;20159;-85
2020/12/01 07:11:52;;;;;;;36.90;4.47;;;9.00;99.90;;;;;;5075948;28;20213;-85
2020/12/01 07:14:24;;;;;;;41.33;4.87;;;9.00;99.90;;;;;;5037416;28;20168;-85
2020/12/01 07:16:50;;;;;;;42.97;4.93;;;9.00;99.90;;;;;;5054009;28;20167;-85
2020/12/01 07:19:35;;;;;;;39.35;5.32;;;9.10;99.90;;;;;;5019914;28;20647;-85
2020/12/01 07:22:30;;;;;;;34.83;4.93;;;9.10;99.90;;;;;;5035931;28;20175;-86
2020/12/01 07:25:25;;;;;;;40.72;4.90;;;9.10;99.90;;;;;;5051579;28;20273;-86
2020/12/01 07:28:09;;;;;;;39.50;5.20;;;9.20;99.90;;;;;;5035761;28;20171;-86
2020/12/01 07:31:02;;;;;;;35.60;5.22;;;9.20;99.90;;;;;;5035899;28;20529;-86
2020/12/01 07:33:35;;;;;;;45.63;4.57;;;9.10;99.90;;;;;;5050963;28;20263;-90
2020/12/01 07:36:21;;;;;;;42.78;4.32;;;9.20;99.90;;;;;;5060023;28;20197;-91
2020/12/01 07:38:48;;;;;;;41.15;3.85;;;9.10;99.90;;;;;;5106379;28;20151;-91
2020/12/01 07:41:27;;;;;;;33.88;4.68;;;9.10;99.90;;;;;;5109788;28;20162;-88
2020/12/01 07:44:05;;;;;;;32.72;4.80;;;9.10;99.90;;;;;;5111720;28;20139;-89
2020/12/01 07:49:22;;;;;;;39.67;4.78;;;9.20;99.90;;;;;;5094959;28;20207;-91
2020/12/01 07:51:49;;;;;;;41.90;4.67;;;9.20;99.90;;;;;;5061502;28;20228;-91
2020/12/01 07:54:24;;;;;;;45.17;4.50;;;9.20;99.90;;;;;;5078706;28;20720;-91
2020/12/01 07:56:50;;;;;;;35.03;4.55;;;9.10;99.90;;;;;;5080272;28;20644;-91
2020/12/01 07:59:16;;;;;;;25.92;3.40;;;9.20;99.90;;;;;;5097073;28;20175;-90
2020/12/01 08:01:43;;;;;;;33.35;4.30;;;9.20;99.90;;;;;;5056282;28;20677;-91
2020/12/01 08:04:21;;;;;;;25.40;3.60;;;9.30;99.90;;;;;;5081878;28;20534;-91
2020/12/01 08:06:58;;;;;;;32.23;3.67;;;9.30;99.90;;;;;;5067896;28;20233;-91
2020/12/01 08:09:25;;;;;;;34.53;5.17;;;9.20;99.90;;;;;;5079279;28;20166;-92
2020/12/01 08:11:54;;;;;;;35.55;5.45;;;9.20;99.90;;;;;;5072542;28;20285;-92
2020/12/01 08:14:20;;;;;;;41.23;4.30;;;9.20;99.90;;;;;;5071513;28;20265;-90
2020/12/01 08:17:07;;;;;;;45.22;5.38;;;9.10;99.90;;;;;;5055402;28;20204;-92
2020/12/01 08:19:33;;;;;;;40.07;4.47;;;9.20;99.90;;;;;;5080039;28;20166;-92
2020/12/01 08:22:00;;;;;;;46.37;5.10;;;9.10;99.90;;;;;;5080128;28;20579;-91
2020/12/01 08:24:30;;;;;;;43.47;5.00;;;9.10;99.90;;;;;;5080423;28;20173;-91
2020/12/01 08:27:22;;;;;;;44.22;4.25;;;9.10;99.90;;;;;;5084553;28;20182;-92
2020/12/01 08:29:50;;;;;;;45.63;5.18;;;9.20;99.90;;;;;;5069471;28;20178;-91
2020/12/01 08:32:32;;;;;;;46.80;5.22;;;9.30;99.90;;;;;;5064293;28;20660;-91
2020/12/01 08:35:30;;;;;;;41.00;4.68;;;9.20;99.90;;;;;;5059827;28;20169;-92
2020/12/01 08:38:10;;;;;;;35.63;4.45;;;9.20;99.90;;;;;;5059789;28;20162;-92
2020/12/01 08:40:46;;;;;;;44.22;5.00;;;9.30;99.90;;;;;;5059425;28;20166;-92
2020/12/01 08:43:21;;;;;;;40.53;5.20;;;9.40;99.90;;;;;;5077514;28;20189;-92
2020/12/01 08:46:01;;;;;;;42.15;4.53;;;9.40;99.90;;;;;;5063520;28;20331;-92
2020/12/01 08:48:30;;;;;;;50.75;5.43;;;9.50;99.90;;;;;;5098594;28;20185;-92
2020/12/01 08:51:08;;;;;;;38.53;4.90;;;9.60;99.90;;;;;;5079575;28;20170;-92
2020/12/01 08:54:08;;;;;;;56.05;6.35;;;9.50;99.90;;;;;;5079565;28;20359;-91
2020/12/01 08:56:42;;;;;;;35.78;5.13;;;9.60;99.90;;;;;;5041910;28;20178;-92
2020/12/01 08:59:11;;;;;;;35.92;4.70;;;9.50;99.90;;;;;;5080425;28;20178;-91
2020/12/01 09:01:42;;;;;;;51.88;4.97;;;9.50;99.90;;;;;;5074176;28;20211;-92
2020/12/01 09:04:24;;;;;;;46.17;4.40;;;9.50;99.90;;;;;;5076974;28;20182;-92
2020/12/01 09:06:52;;;;;;;37.97;5.03;;;9.60;99.90;;;;;;5059427;28;20225;-92
2020/12/01 09:09:26;;;;;;;36.58;4.90;;;9.60;99.90;;;;;;5059422;28;20634;-92
2020/12/01 09:15:00;;;;;;;43.72;6.13;;;9.60;99.90;;;;;;5060701;28;20607;-91
2020/12/01 09:23:12;;;;;;;37.17;4.18;;;9.40;99.90;;;;;;5095520;28;20273;-84
2020/12/01 09:25:40;;;;;;;34.53;4.80;;;9.50;99.90;;;;;;5094951;28;20199;-84
2020/12/01 09:28:12;;;;;;;41.22;4.72;;;9.60;99.90;;;;;;5065520;28;20591;-84
2020/12/01 09:30:40;;;;;;;30.80;4.18;;;9.60;99.90;;;;;;5077455;28;20166;-84
2020/12/01 09:33:09;;;;;;;43.53;4.90;;;9.70;99.90;;;;;;5061001;28;20288;-84
2020/12/01 09:35:35;;;;;;;34.08;4.63;;;9.70;99.90;;;;;;5095498;28;20158;-83
2020/12/01 09:38:02;;;;;;;33.97;4.60;;;9.80;99.90;;;;;;5069357;28;20321;-84
2020/12/01 09:40:30;;;;;;;31.65;6.05;;;9.90;99.90;;;;;;5057097;28;20170;-84
2020/12/01 09:43:00;;;;;;;38.85;5.38;;;10.00;99.90;;;;;;5034184;28;20190;-84
2020/12/01 09:45:30;;;;;;;26.27;4.70;;;10.10;99.90;;;;;;5059507;28;20228;-83
2020/12/01 09:50:34;;;;;;;43.80;4.93;;;10.20;99.90;;;;;;5044370;28;20169;-84
2020/12/01 10:09:50;;;;;;;34.03;4.70;;;10.80;99.90;;;;;;5078168;28;20173;-83
2020/12/01 10:17:52;;;;;;;36.67;4.85;;;10.80;99.90;;;;;;5027624;28;20208;-83
2020/12/01 10:36:04;;;;;;;28.77;4.40;;;11.00;99.90;;;;;;5041542;28;20305;-83
2020/12/01 10:38:30;;;;;;;26.10;3.55;;;11.10;99.90;;;;;;5019377;28;20253;-84
2020/12/01 10:40:57;;;;;;;32.30;3.90;;;11.10;99.90;;;;;;5045767;28;20681;-84
2020/12/01 10:43:23;;;;;;;26.80;3.40;;;10.90;99.90;;;;;;5054754;28;20179;-83
2020/12/01 10:45:48;;;;;;;25.58;3.50;;;11.00;99.90;;;;;;5038962;28;20528;-84
2020/12/01 10:48:14;;;;;;;28.23;3.97;;;11.00;99.90;;;;;;5019879;28;20616;-83
2020/12/01 10:50:40;;;;;;;34.05;4.68;;;11.10;99.90;;;;;;5037129;28;20178;-83
2020/12/01 10:53:05;;;;;;;27.27;3.40;;;11.00;99.90;;;;;;5076173;28;20534;-83
2020/12/01 10:55:32;;;;;;;25.65;3.63;;;11.10;99.90;;;;;;5048195;28;20255;-82
2020/12/01 10:57:58;;;;;;;18.95;2.95;;;11.20;99.90;;;;;;5080783;28;20533;-83
2020/12/01 11:00:27;;;;;;;24.27;4.57;;;11.10;99.90;;;;;;5038686;28;20170;-83
2020/12/01 11:02:53;;;;;;;14.77;2.70;;;11.00;99.90;;;;;;5081807;28;20179;-82
2020/12/01 11:05:24;;;;;;;20.67;3.38;;;10.70;99.90;;;;;;5080229;28;20194;-82
2020/12/01 11:07:50;;;;;;;18.27;3.13;;;10.50;99.90;;;;;;5070601;28;20205;-84
2020/12/01 11:10:16;;;;;;;14.02;2.75;;;10.50;99.90;;;;;;5080512;28;20776;-84
2020/12/01 11:12:41;;;;;;;20.38;3.85;;;10.50;99.90;;;;;;5047366;28;20214;-83
2020/12/01 11:15:07;;;;;;;23.17;3.20;;;10.70;99.90;;;;;;5084154;28;20206;-85
2020/12/01 11:17:33;;;;;;;21.60;3.03;;;10.80;99.90;;;;;;5039443;28;20267;-83
2020/12/01 11:19:59;;;;;;;21.73;2.90;;;11.00;99.90;;;;;;5062127;28;20228;-82
2020/12/01 11:22:25;;;;;;;16.45;3.45;;;11.20;99.90;;;;;;5058602;28;20224;-83
2020/12/01 11:24:51;;;;;;;19.13;2.72;;;11.30;99.90;;;;;;5060223;28;20175;-82
2020/12/01 11:27:16;;;;;;;20.75;3.10;;;11.20;99.90;;;;;;5036278;28;20221;-82
2020/12/01 11:29:42;;;;;;;19.25;3.00;;;11.30;99.90;;;;;;5075625;28;20175;-82
2020/12/01 11:32:07;;;;;;;12.80;2.80;;;11.30;99.90;;;;;;5024097;28;20206;-83
2020/12/01 11:34:33;;;;;;;23.30;3.78;;;11.30;99.90;;;;;;5023743;28;20269;-83
2020/12/01 11:36:59;;;;;;;24.60;3.63;;;11.30;99.90;;;;;;5059875;28;20620;-83
2020/12/01 11:39:25;;;;;;;21.13;3.15;;;11.40;99.90;;;;;;5042641;28;20182;-84
2020/12/01 11:41:51;;;;;;;14.50;3.20;;;11.60;99.90;;;;;;5059433;28;20167;-83
2020/12/01 11:44:16;;;;;;;17.90;3.13;;;11.60;99.90;;;;;;5040908;28;20183;-83
2020/12/01 11:46:43;;;;;;;17.50;2.75;;;11.40;99.90;;;;;;5038538;28;20203;-83
2020/12/01 11:49:09;;;;;;;22.58;3.13;;;11.30;99.90;;;;;;5039598;28;20501;-83
2020/12/01 11:51:37;;;;;;;23.83;3.42;;;11.30;99.90;;;;;;5057177;28;20174;-83
2020/12/01 11:54:05;;;;;;;26.90;4.53;;;11.20;99.90;;;;;;5058324;28;20226;-83
2020/12/01 11:56:31;;;;;;;19.00;3.80;;;11.30;99.90;;;;;;5073690;28;20171;-83
2020/12/01 11:58:58;;;;;;;29.85;3.80;;;11.40;99.90;;;;;;5036835;28;20179;-83
2020/12/01 12:01:24;;;;;;;20.05;3.15;;;11.40;99.90;;;;;;5055340;28;20214;-83
2020/12/01 12:03:50;;;;;;;18.13;3.00;;;11.60;99.90;;;;;;5062928;28;20167;-83
2020/12/01 12:06:16;;;;;;;22.20;3.15;;;11.60;99.90;;;;;;5042130;28;20703;-83
2020/12/01 12:08:43;;;;;;;22.50;4.43;;;11.50;99.90;;;;;;5059226;28;20627;-79
2020/12/01 12:11:09;;;;;;;24.73;3.58;;;11.40;99.90;;;;;;5062806;28;20178;-79
2020/12/01 12:13:34;;;;;;;22.27;3.25;;;11.40;99.90;;;;;;5059709;28;20210;-79
2020/12/01 12:16:00;;;;;;;20.83;3.03;;;11.40;99.90;;;;;;5073301;28;20554;-79
2020/12/01 12:18:26;;;;;;;23.38;3.03;;;11.40;99.90;;;;;;5059066;28;20174;-80
2020/12/01 12:20:51;;;;;;;34.42;3.38;;;11.40;99.90;;;;;;5058795;28;20542;-79
2020/12/01 12:23:17;;;;;;;15.55;3.25;;;11.40;99.90;;;;;;5056439;28;20178;-79
2020/12/01 12:25:43;;;;;;;11.88;2.38;;;11.20;99.90;;;;;;5079734;28;20182;-78
2020/12/01 12:28:09;;;;;;;26.75;4.38;;;11.20;99.90;;;;;;5082966;28;20178;-86
2020/12/01 12:30:34;;;;;;;20.23;2.97;;;11.30;99.90;;;;;;5055778;28;20224;-81
2020/12/01 12:33:00;;;;;;;24.35;3.10;;;11.40;99.90;;;;;;5069949;28;20193;-81
2020/12/01 12:35:25;;;;;;;20.08;2.97;;;11.30;99.90;;;;;;5078546;28;20174;-83
2020/12/01 12:37:51;;;;;;;26.02;4.00;;;11.40;99.90;;;;;;5048723;28;20549;-88
2020/12/01 12:40:18;;;;;;;18.67;2.70;;;11.50;99.90;;;;;;5022214;28;20527;-88
2020/12/01 12:42:44;;;;;;;24.58;3.67;;;11.60;99.90;;;;;;5073383;28;20162;-87
2020/12/01 12:45:13;;;;;;;22.75;3.40;;;11.60;99.90;;;;;;5060353;28;20254;-90
2020/12/01 12:47:40;;;;;;;21.77;2.95;;;12.00;99.90;;;;;;5062197;28;20270;-88
2020/12/01 12:50:07;;;;;;;23.98;3.20;;;12.10;99.90;;;;;;5078176;28;20166;-86
2020/12/01 12:52:33;;;;;;;18.60;4.07;;;12.10;99.90;;;;;;5046316;28;20209;-87
2020/12/01 12:54:58;;;;;;;27.67;3.22;;;12.30;99.90;;;;;;5062048;28;20173;-87
2020/12/01 12:57:24;;;;;;;23.73;3.58;;;12.40;99.90;;;;;;5057910;28;20202;-87
2020/12/01 12:59:49;;;;;;;22.27;3.25;;;12.70;99.90;;;;;;5062123;28;20319;-86
2020/12/01 13:02:15;;;;;;;30.83;3.92;;;13.00;99.90;;;;;;5067948;28;20210;-86
2020/12/01 13:04:41;;;;;;;27.98;3.28;;;13.20;99.90;;;;;;5058543;28;20624;-86
2020/12/01 13:07:07;;;;;;;24.20;4.22;;;13.00;99.90;;;;;;5058333;28;20182;-87
2020/12/01 13:09:33;;;;;;;23.33;3.50;;;12.90;99.90;;;;;;5058430;28;20174;-86
2020/12/01 13:11:58;;;;;;;16.45;3.70;;;12.90;99.90;;;;;;5044517;28;20214;-88
2020/12/01 13:14:24;;;;;;;21.83;3.85;;;13.00;99.90;;;;;;5056574;28;20182;-87
2020/12/01 13:16:51;;;;;;;21.13;3.85;;;13.00;99.90;;;;;;5048129;28;20192;-87
2020/12/01 13:19:17;;;;;;;18.15;3.15;;;13.00;99.90;;;;;;5102148;28;20167;-86
2020/12/01 13:21:43;;;;;;;32.80;4.38;;;12.90;99.90;;;;;;5047793;28;20188;-86
2020/12/01 13:24:09;;;;;;;24.75;3.67;;;12.60;99.90;;;;;;5029326;28;20261;-87
2020/12/01 13:26:35;;;;;;;24.23;3.53;;;12.20;99.90;;;;;;5044350;28;20198;-87
2020/12/01 13:29:02;;;;;;;16.08;3.20;;;11.90;99.90;;;;;;5040988;28;20224;-87
2020/12/01 13:31:27;;;;;;;17.08;3.65;;;11.70;99.90;;;;;;5049364;28;20202;-85
2020/12/01 13:33:53;;;;;;;32.10;4.53;;;11.50;99.90;;;;;;5042203;28;20181;-86
2020/12/01 13:36:21;;;;;;;20.55;3.83;;;11.40;99.90;;;;;;5042166;28;20620;-86
2020/12/01 13:38:47;;;;;;;26.13;3.80;;;11.30;99.90;;;;;;5059060;28;20181;-86
2020/12/01 13:41:13;;;;;;;23.30;4.38;;;11.30;99.90;;;;;;5086140;28;20174;-87
2020/12/01 13:43:38;;;;;;;25.63;3.75;;;11.30;99.90;;;;;;5079112;28;20165;-87
2020/12/01 13:46:04;;;;;;;22.17;3.63;;;11.20;99.90;;;;;;5080649;28;20170;-87
2020/12/01 13:48:29;;;;;;;30.98;3.60;;;11.30;99.90;;;;;;5064821;28;20174;-86
2020/12/01 13:50:55;;;;;;;20.30;3.40;;;11.30;99.90;;;;;;5066275;28;20194;-86
2020/12/01 13:53:21;;;;;;;26.70;4.10;;;11.20;99.90;;;;;;5073975;28;20566;-86